createdAt,value
2018-09-29T00:00:21.026Z,0.00
2018-09-29T00:01:21.026Z,0.00
2018-09-29T00:02:21.014Z,0.00
2018-09-29T00:03:21.112Z,0.00
2018-09-29T00:04:21.004Z,0.00
2018-09-29T00:05:20.993Z,0.00
2018-09-29T00:06:20.986Z,0.00
2018-09-29T00:07:20.981Z,0.00
2018-09-29T00:08:20.973Z,0.00
2018-09-29T00:09:20.969Z,0.00
2018-09-29T00:10:20.982Z,0.00
2018-09-29T00:11:20.956Z,0.00
2018-09-29T00:12:20.945Z,0.00
2018-09-29T00:13:20.940Z,0.00
2018-09-29T00:14:20.935Z,0.00
2018-09-29T00:15:20.935Z,0.00
2018-09-29T00:16:20.957Z,0.00
2018-09-29T00:17:21.445Z,0.00
2018-09-29T00:18:20.909Z,0.00
2018-09-29T00:19:20.902Z,0.00
2018-09-29T00:20:20.892Z,0.00
2018-09-29T00:21:20.889Z,0.00
2018-09-29T00:22:20.885Z,0.00
2018-09-29T00:23:20.874Z,0.00
2018-09-29T00:24:20.866Z,0.00
2018-09-29T00:25:20.864Z,0.00
2018-09-29T00:26:20.855Z,0.00
2018-09-29T00:27:20.850Z,0.00
2018-09-29T00:28:20.840Z,0.00
2018-09-29T00:29:20.832Z,0.00
2018-09-29T00:30:20.825Z,0.00
2018-09-29T00:31:20.821Z,0.00
2018-09-29T00:32:20.814Z,0.00
2018-09-29T00:33:20.808Z,0.00
2018-09-29T00:34:20.800Z,0.00
2018-09-29T00:35:20.792Z,0.00
2018-09-29T00:36:20.790Z,0.00
2018-09-29T00:37:20.782Z,0.00
2018-09-29T00:38:20.776Z,0.00
2018-09-29T00:39:20.766Z,0.00
2018-09-29T00:40:20.761Z,0.00
2018-09-29T00:41:20.751Z,0.00
2018-09-29T00:42:20.748Z,0.00
2018-09-29T00:43:20.743Z,0.00
2018-09-29T00:44:20.733Z,0.00
2018-09-29T00:45:20.727Z,0.00
2018-09-29T00:46:20.722Z,0.00
2018-09-29T00:47:20.712Z,0.00
2018-09-29T00:48:20.706Z,0.00
2018-09-29T00:49:20.698Z,0.00
2018-09-29T00:50:20.691Z,0.00
2018-09-29T00:51:20.684Z,0.00
2018-09-29T00:52:20.679Z,0.00
2018-09-29T00:53:20.669Z,0.00
2018-09-29T00:54:20.662Z,0.00
2018-09-29T00:55:20.657Z,0.00
2018-09-29T00:56:20.647Z,0.00
2018-09-29T00:57:20.645Z,0.00
2018-09-29T00:58:20.635Z,0.00
2018-09-29T00:59:20.628Z,0.00
2018-09-29T01:00:20.618Z,0.00
2018-09-29T01:01:20.615Z,0.00
2018-09-29T01:02:20.609Z,0.00
2018-09-29T01:03:20.608Z,0.00
2018-09-29T01:04:20.594Z,0.00
2018-09-29T01:05:20.584Z,0.00
2018-09-29T01:06:20.582Z,0.00
2018-09-29T01:07:20.572Z,0.00
2018-09-29T01:08:20.566Z,0.00
2018-09-29T01:09:20.558Z,0.00
2018-09-29T01:10:20.551Z,0.00
2018-09-29T01:11:20.542Z,0.00
2018-09-29T01:12:20.539Z,0.00
2018-09-29T01:13:20.530Z,0.00
2018-09-29T01:14:20.524Z,0.00
2018-09-29T01:15:20.520Z,0.00
2018-09-29T01:16:20.510Z,0.00
2018-09-29T01:17:20.503Z,0.00
2018-09-29T01:18:20.495Z,0.00
2018-09-29T01:19:20.491Z,0.00
2018-09-29T01:20:20.481Z,0.00
2018-09-29T01:21:20.476Z,0.00
2018-09-29T01:22:20.469Z,0.00
2018-09-29T01:23:20.462Z,0.00
2018-09-29T01:24:20.455Z,0.00
2018-09-29T01:25:20.446Z,0.00
2018-09-29T01:26:20.439Z,0.00
2018-09-29T01:27:20.433Z,0.00
2018-09-29T01:28:20.427Z,0.00
2018-09-29T01:29:20.418Z,0.00
2018-09-29T01:30:20.410Z,0.00
2018-09-29T01:31:20.406Z,0.00
2018-09-29T01:32:20.394Z,0.00
2018-09-29T01:33:20.389Z,0.00
2018-09-29T01:34:20.381Z,0.00
2018-09-29T01:35:20.374Z,0.00
2018-09-29T01:36:20.367Z,0.00
2018-09-29T01:37:20.362Z,0.00
2018-09-29T01:38:20.354Z,0.00
2018-09-29T01:39:20.348Z,0.00
2018-09-29T01:40:20.341Z,0.00
2018-09-29T01:41:20.334Z,0.00
2018-09-29T01:42:20.325Z,0.00
2018-09-29T01:43:20.324Z,0.00
2018-09-29T01:44:20.308Z,0.00
2018-09-29T01:45:20.306Z,0.00
2018-09-29T01:46:20.299Z,0.00
2018-09-29T01:47:20.294Z,0.00
2018-09-29T01:48:20.282Z,0.00
2018-09-29T01:49:20.277Z,0.00
2018-09-29T01:50:20.269Z,0.00
2018-09-29T01:51:20.264Z,0.00
2018-09-29T01:52:20.255Z,0.00
2018-09-29T01:53:20.253Z,0.00
2018-09-29T01:54:20.239Z,0.00
2018-09-29T01:55:20.235Z,0.00
2018-09-29T01:56:20.226Z,0.00
2018-09-29T01:57:20.218Z,0.00
2018-09-29T01:58:20.211Z,0.00
2018-09-29T01:59:20.206Z,0.00
2018-09-29T02:00:20.198Z,0.00
2018-09-29T02:01:20.191Z,0.00
2018-09-29T02:02:20.184Z,0.00
2018-09-29T02:03:20.175Z,0.00
2018-09-29T02:04:20.170Z,0.00
2018-09-29T02:05:20.163Z,0.00
2018-09-29T02:06:20.157Z,0.00
2018-09-29T02:07:20.148Z,0.00
2018-09-29T02:08:20.140Z,0.00
2018-09-29T02:09:20.134Z,0.00
2018-09-29T02:10:20.126Z,0.00
2018-09-29T02:11:20.126Z,0.00
2018-09-29T02:12:20.107Z,0.00
2018-09-29T02:13:20.102Z,0.00
2018-09-29T02:14:20.138Z,0.00
2018-09-29T02:15:20.094Z,0.00
2018-09-29T02:16:20.083Z,0.00
2018-09-29T02:17:20.079Z,0.00
2018-09-29T02:18:20.068Z,0.00
2018-09-29T02:19:20.062Z,0.00
2018-09-29T02:20:20.053Z,0.00
2018-09-29T02:21:20.048Z,0.00
2018-09-29T02:22:20.042Z,0.00
2018-09-29T02:23:20.037Z,0.00
2018-09-29T02:24:20.029Z,0.00
2018-09-29T02:25:20.023Z,0.00
2018-09-29T02:26:20.015Z,0.00
2018-09-29T02:27:20.006Z,0.00
2018-09-29T02:28:19.999Z,0.00
2018-09-29T02:29:19.992Z,0.00
2018-09-29T02:30:19.986Z,0.00
2018-09-29T02:31:19.977Z,0.00
2018-09-29T02:32:19.966Z,0.00
2018-09-29T02:33:19.964Z,0.00
2018-09-29T02:34:19.958Z,0.00
2018-09-29T02:35:19.950Z,0.00
2018-09-29T02:36:19.951Z,0.00
2018-09-29T02:37:19.936Z,0.00
2018-09-29T02:38:19.928Z,0.00
2018-09-29T02:39:19.924Z,0.00
2018-09-29T02:40:19.919Z,0.00
2018-09-29T02:41:19.904Z,0.00
2018-09-29T02:42:19.899Z,0.00
2018-09-29T02:43:19.896Z,0.00
2018-09-29T02:44:19.893Z,0.00
2018-09-29T02:45:19.882Z,0.00
2018-09-29T02:46:19.869Z,0.00
2018-09-29T02:47:19.873Z,0.00
2018-09-29T02:48:19.855Z,0.00
2018-09-29T02:49:19.849Z,0.00
2018-09-29T02:50:19.842Z,0.00
2018-09-29T02:51:19.834Z,0.00
2018-09-29T02:52:19.826Z,0.00
2018-09-29T02:53:19.825Z,0.00
2018-09-29T02:54:19.812Z,0.00
2018-09-29T02:55:19.813Z,0.00
2018-09-29T02:56:19.799Z,0.00
2018-09-29T02:57:19.795Z,0.00
2018-09-29T02:58:19.787Z,0.00
2018-09-29T02:59:19.780Z,0.00
2018-09-29T03:00:20.475Z,0.00
2018-09-29T03:01:19.763Z,0.00
2018-09-29T03:02:19.755Z,0.00
2018-09-29T03:03:19.748Z,0.00
2018-09-29T03:04:19.740Z,0.00
2018-09-29T03:05:19.733Z,0.00
2018-09-29T03:06:19.723Z,0.00
2018-09-29T03:07:19.815Z,0.00
2018-09-29T03:08:19.711Z,0.00
2018-09-29T03:09:19.705Z,0.00
2018-09-29T03:10:19.698Z,0.00
2018-09-29T03:11:19.688Z,0.00
2018-09-29T03:12:19.682Z,0.00
2018-09-29T03:13:19.674Z,0.00
2018-09-29T03:14:19.671Z,0.00
2018-09-29T03:15:19.660Z,0.00
2018-09-29T03:16:19.653Z,0.00
2018-09-29T03:17:19.645Z,0.00
2018-09-29T03:18:19.638Z,0.00
2018-09-29T03:19:19.692Z,0.00
2018-09-29T03:20:19.623Z,0.00
2018-09-29T03:21:19.617Z,0.00
2018-09-29T03:22:19.609Z,0.00
2018-09-29T03:23:19.601Z,0.00
2018-09-29T03:24:19.594Z,0.00
2018-09-29T03:25:19.585Z,0.00
2018-09-29T03:26:19.577Z,0.00
2018-09-29T03:27:19.580Z,0.00
2018-09-29T03:28:19.571Z,0.00
2018-09-29T03:29:19.559Z,0.00
2018-09-29T03:30:19.549Z,0.00
2018-09-29T03:31:19.554Z,0.00
2018-09-29T03:32:19.537Z,0.00
2018-09-29T03:33:19.536Z,0.00
2018-09-29T03:34:19.516Z,0.00
2018-09-29T03:35:19.515Z,0.00
2018-09-29T03:36:19.500Z,0.00
2018-09-29T03:37:19.496Z,0.00
2018-09-29T03:38:19.490Z,0.00
2018-09-29T03:39:19.482Z,0.00
2018-09-29T03:40:19.477Z,0.00
2018-09-29T03:41:19.459Z,0.00
2018-09-29T03:42:19.462Z,0.00
2018-09-29T03:43:19.458Z,0.00
2018-09-29T03:44:19.460Z,0.00
2018-09-29T03:45:19.438Z,0.00
2018-09-29T03:46:19.429Z,0.00
2018-09-29T03:47:19.423Z,0.00
2018-09-29T03:48:19.410Z,0.00
2018-09-29T03:49:19.404Z,0.00
2018-09-29T03:50:19.400Z,0.00
2018-09-29T03:51:19.389Z,0.00
2018-09-29T03:52:19.386Z,0.00
2018-09-29T03:53:19.375Z,0.00
2018-09-29T03:54:19.368Z,0.00
2018-09-29T03:55:19.364Z,0.00
2018-09-29T03:56:19.353Z,0.00
2018-09-29T03:57:19.345Z,0.00
2018-09-29T03:58:19.340Z,0.00
2018-09-29T03:59:19.334Z,0.00
2018-09-29T04:00:19.322Z,0.00
2018-09-29T04:01:19.316Z,0.00
2018-09-29T04:02:19.308Z,0.00
2018-09-29T04:03:19.306Z,0.00
2018-09-29T04:04:19.293Z,0.00
2018-09-29T04:05:19.286Z,0.00
2018-09-29T04:06:19.277Z,0.00
2018-09-29T04:07:19.269Z,0.00
2018-09-29T04:08:19.262Z,0.00
2018-09-29T04:09:19.260Z,0.00
2018-09-29T04:10:19.249Z,0.00
2018-09-29T04:11:19.239Z,0.00
2018-09-29T04:12:19.231Z,0.00
2018-09-29T04:13:19.224Z,0.00
2018-09-29T04:14:19.217Z,0.00
2018-09-29T04:15:19.208Z,0.00
2018-09-29T04:16:19.201Z,0.00
2018-09-29T04:17:19.197Z,0.00
2018-09-29T04:18:19.187Z,0.00
2018-09-29T04:19:19.179Z,0.00
2018-09-29T04:20:19.169Z,0.00
2018-09-29T04:21:19.168Z,0.00
2018-09-29T04:22:19.155Z,0.00
2018-09-29T04:23:19.150Z,0.00
2018-09-29T04:24:19.139Z,0.00
2018-09-29T04:25:19.132Z,0.00
2018-09-29T04:26:19.122Z,0.00
2018-09-29T04:27:19.116Z,0.00
2018-09-29T04:28:19.111Z,0.00
2018-09-29T04:29:19.100Z,0.00
2018-09-29T04:30:19.090Z,0.00
2018-09-29T04:31:19.086Z,0.00
2018-09-29T04:32:19.080Z,4.00
2018-09-29T04:33:19.069Z,0.00
2018-09-29T04:34:19.064Z,0.00
2018-09-29T04:35:19.051Z,4.00
2018-09-29T04:36:19.045Z,4.00
2018-09-29T04:37:19.038Z,4.00
2018-09-29T04:38:19.034Z,8.00
2018-09-29T04:39:19.020Z,8.00
2018-09-29T04:40:19.014Z,8.00
2018-09-29T04:41:19.006Z,8.00
2018-09-29T04:42:18.999Z,8.00
2018-09-29T04:43:19.008Z,8.00
2018-09-29T04:44:18.992Z,16.00
2018-09-29T04:45:18.975Z,16.00
2018-09-29T04:46:18.968Z,20.00
2018-09-29T04:47:18.961Z,20.00
2018-09-29T04:48:18.951Z,28.00
2018-09-29T04:49:18.943Z,32.00
2018-09-29T04:50:18.935Z,36.00
2018-09-29T04:51:18.928Z,44.00
2018-09-29T04:52:18.925Z,48.00
2018-09-29T04:53:18.913Z,52.00
2018-09-29T04:54:18.906Z,64.00
2018-09-29T04:55:18.896Z,72.00
2018-09-29T04:56:18.888Z,80.00
2018-09-29T04:57:18.881Z,92.00
2018-09-29T04:58:18.874Z,100.00
2018-09-29T04:59:18.863Z,112.00
2018-09-29T05:00:18.858Z,124.00
2018-09-29T05:01:18.853Z,140.00
2018-09-29T05:02:18.843Z,148.00
2018-09-29T05:03:18.836Z,168.00
2018-09-29T05:04:18.825Z,180.00
2018-09-29T05:05:18.826Z,200.00
2018-09-29T05:06:18.820Z,212.00
2018-09-29T05:07:18.804Z,236.00
2018-09-29T05:08:18.794Z,252.00
2018-09-29T05:09:18.789Z,272.00
2018-09-29T05:10:18.774Z,292.00
2018-09-29T05:11:18.775Z,312.00
2018-09-29T05:12:18.766Z,332.00
2018-09-29T05:13:18.753Z,356.00
2018-09-29T05:14:18.749Z,380.00
2018-09-29T05:15:18.741Z,404.00
2018-09-29T05:16:18.736Z,428.00
2018-09-29T05:17:18.723Z,452.00
2018-09-29T05:18:18.721Z,476.00
2018-09-29T05:19:18.707Z,500.00
2018-09-29T05:20:18.697Z,524.00
2018-09-29T05:21:18.692Z,552.00
2018-09-29T05:22:18.684Z,580.00
2018-09-29T05:23:18.769Z,608.00
2018-09-29T05:24:18.668Z,636.00
2018-09-29T05:25:18.664Z,668.00
2018-09-29T05:26:18.653Z,700.00
2018-09-29T05:27:18.645Z,728.00
2018-09-29T05:28:18.637Z,760.00
2018-09-29T05:29:18.627Z,788.00
2018-09-29T05:30:18.621Z,820.00
2018-09-29T05:31:18.615Z,844.00
2018-09-29T05:32:18.606Z,864.00
2018-09-29T05:33:18.599Z,896.00
2018-09-29T05:34:18.591Z,928.00
2018-09-29T05:35:18.584Z,952.00
2018-09-29T05:36:18.575Z,976.00
2018-09-29T05:37:18.566Z,1004.00
2018-09-29T05:38:18.565Z,1032.00
2018-09-29T05:39:18.553Z,1056.00
2018-09-29T05:40:18.544Z,1084.00
2018-09-29T05:41:18.535Z,1108.00
2018-09-29T05:42:18.528Z,1128.00
2018-09-29T05:43:18.523Z,1148.00
2018-09-29T05:44:18.513Z,1164.00
2018-09-29T05:45:18.506Z,1172.00
2018-09-29T05:46:18.496Z,1184.00
2018-09-29T05:47:18.491Z,1196.00
2018-09-29T05:48:18.518Z,1212.00
2018-09-29T05:49:18.473Z,1228.00
2018-09-29T05:50:18.465Z,1252.00
2018-09-29T05:51:18.460Z,1272.00
2018-09-29T05:52:18.451Z,1288.00
2018-09-29T05:53:18.442Z,1308.00
2018-09-29T05:54:18.436Z,1328.00
2018-09-29T05:55:18.427Z,1348.00
2018-09-29T05:56:18.419Z,1368.00
2018-09-29T05:57:18.415Z,1396.00
2018-09-29T05:58:18.409Z,1428.00
2018-09-29T05:59:18.400Z,1476.00
2018-09-29T06:00:18.454Z,1528.00
2018-09-29T06:01:18.380Z,1580.00
2018-09-29T06:02:18.374Z,1612.00
2018-09-29T06:03:18.366Z,1620.00
2018-09-29T06:04:18.357Z,1616.00
2018-09-29T06:05:18.399Z,1592.00
2018-09-29T06:06:18.386Z,1580.00
2018-09-29T06:07:18.403Z,1584.00
2018-09-29T06:08:18.327Z,1588.00
2018-09-29T06:09:18.321Z,1600.00
2018-09-29T06:10:18.312Z,1624.00
2018-09-29T06:11:18.306Z,1632.00
2018-09-29T06:12:18.300Z,1644.00
2018-09-29T06:13:18.348Z,1668.00
2018-09-29T06:14:18.281Z,1688.00
2018-09-29T06:15:18.274Z,1716.00
2018-09-29T06:16:18.268Z,1804.00
2018-09-29T06:17:18.259Z,2236.00
2018-09-29T06:18:18.253Z,3888.00
2018-09-29T06:19:18.244Z,4952.00
2018-09-29T06:20:18.233Z,4284.00
2018-09-29T06:21:18.232Z,3888.00
2018-09-29T06:22:18.221Z,3092.00
2018-09-29T06:23:18.214Z,3448.00
2018-09-29T06:24:18.207Z,6036.00
2018-09-29T06:25:18.200Z,7296.00
2018-09-29T06:26:18.192Z,7428.00
2018-09-29T06:27:18.184Z,7676.00
2018-09-29T06:28:18.178Z,8044.00
2018-09-29T06:29:18.171Z,8180.00
2018-09-29T06:30:18.162Z,7956.00
2018-09-29T06:31:18.160Z,7720.00
2018-09-29T06:32:18.151Z,8104.00
2018-09-29T06:33:18.143Z,8644.00
2018-09-29T06:34:18.224Z,9444.00
2018-09-29T06:35:18.138Z,10232.00
2018-09-29T06:36:18.127Z,10100.00
2018-09-29T06:37:18.122Z,9548.00
2018-09-29T06:38:18.149Z,9240.00
2018-09-29T06:39:18.111Z,9240.00
2018-09-29T06:40:18.106Z,7932.00
2018-09-29T06:41:18.098Z,4996.00
2018-09-29T06:42:18.097Z,3760.00
2018-09-29T06:43:18.090Z,3716.00
2018-09-29T06:44:19.018Z,4428.00
2018-09-29T06:45:18.078Z,5692.00
2018-09-29T06:46:18.077Z,6020.00
2018-09-29T06:47:18.070Z,4400.00
2018-09-29T06:48:18.061Z,2596.00
2018-09-29T06:49:18.059Z,2472.00
2018-09-29T06:50:18.054Z,2460.00
2018-09-29T06:51:18.049Z,2456.00
2018-09-29T06:52:18.051Z,2456.00
2018-09-29T06:53:18.039Z,2452.00
2018-09-29T06:54:18.082Z,2452.00
2018-09-29T06:55:18.031Z,2452.00
2018-09-29T06:56:18.031Z,2452.00
2018-09-29T06:57:18.018Z,2448.00
2018-09-29T06:58:18.016Z,2432.00
2018-09-29T06:59:18.009Z,2420.00
2018-09-29T07:00:18.004Z,2416.00
2018-09-29T07:01:18.000Z,2416.00
2018-09-29T07:02:17.993Z,2412.00
2018-09-29T07:03:18.033Z,2404.00
2018-09-29T07:04:17.985Z,2396.00
2018-09-29T07:05:17.978Z,2388.00
2018-09-29T07:06:17.978Z,2376.00
2018-09-29T07:07:17.966Z,2368.00
2018-09-29T07:08:17.960Z,2344.00
2018-09-29T07:09:17.956Z,2316.00
2018-09-29T07:10:17.950Z,2288.00
2018-09-29T07:11:17.948Z,2268.00
2018-09-29T07:12:17.938Z,2256.00
2018-09-29T07:13:17.932Z,2228.00
2018-09-29T07:14:17.929Z,2208.00
2018-09-29T07:15:18.525Z,2176.00
2018-09-29T07:16:17.916Z,2152.00
2018-09-29T07:17:17.910Z,2132.00
2018-09-29T07:18:17.905Z,2108.00
2018-09-29T07:19:17.900Z,2100.00
2018-09-29T07:20:17.892Z,2100.00
2018-09-29T07:21:17.888Z,2096.00
2018-09-29T07:22:17.883Z,2092.00
2018-09-29T07:23:17.876Z,2096.00
2018-09-29T07:24:17.870Z,2092.00
2018-09-29T07:25:17.904Z,2092.00
2018-09-29T07:26:17.858Z,2092.00
2018-09-29T07:27:17.855Z,2092.00
2018-09-29T07:28:17.846Z,2096.00
2018-09-29T07:29:17.842Z,2100.00
2018-09-29T07:30:17.834Z,2108.00
2018-09-29T07:31:17.888Z,2108.00
2018-09-29T07:32:17.825Z,2108.00
2018-09-29T07:33:17.818Z,2112.00
2018-09-29T07:34:17.814Z,2116.00
2018-09-29T07:35:17.813Z,2116.00
2018-09-29T07:36:17.803Z,2116.00
2018-09-29T07:37:17.795Z,2116.00
2018-09-29T07:38:17.790Z,2120.00
2018-09-29T07:39:17.784Z,2120.00
2018-09-29T07:40:17.786Z,2116.00
2018-09-29T07:41:17.772Z,2120.00
2018-09-29T07:42:17.767Z,2116.00
2018-09-29T07:43:18.531Z,2116.00
2018-09-29T07:44:17.755Z,2116.00
2018-09-29T07:45:17.746Z,2116.00
2018-09-29T07:46:17.742Z,2116.00
2018-09-29T07:47:17.735Z,2120.00
2018-09-29T07:48:17.728Z,2120.00
2018-09-29T07:49:17.740Z,2120.00
2018-09-29T07:50:17.723Z,2116.00
2018-09-29T07:51:17.713Z,2112.00
2018-09-29T07:52:17.706Z,2112.00
2018-09-29T07:53:17.703Z,2112.00
2018-09-29T07:54:17.693Z,2116.00
2018-09-29T07:55:17.687Z,2120.00
2018-09-29T07:56:17.692Z,2112.00
2018-09-29T07:57:17.676Z,2108.00
2018-09-29T07:58:17.674Z,2108.00
2018-09-29T07:59:17.697Z,2104.00
2018-09-29T08:00:17.660Z,2104.00
2018-09-29T08:01:17.653Z,2104.00
2018-09-29T08:02:17.649Z,2100.00
2018-09-29T08:03:17.645Z,2108.00
2018-09-29T08:04:17.634Z,2108.00
2018-09-29T08:05:17.638Z,2096.00
2018-09-29T08:06:17.697Z,2100.00
2018-09-29T08:07:17.621Z,2096.00
2018-09-29T08:08:17.619Z,2096.00
2018-09-29T08:09:17.614Z,2092.00
2018-09-29T08:10:17.604Z,2096.00
2018-09-29T08:11:17.601Z,2096.00
2018-09-29T08:12:17.635Z,2096.00
2018-09-29T08:13:17.587Z,2096.00
2018-09-29T08:14:17.582Z,2092.00
2018-09-29T08:15:17.575Z,2088.00
2018-09-29T08:16:18.116Z,2092.00
2018-09-29T08:17:17.563Z,2092.00
2018-09-29T08:18:17.560Z,2088.00
2018-09-29T08:19:17.555Z,2080.00
2018-09-29T08:20:17.553Z,2080.00
2018-09-29T08:21:17.543Z,2084.00
2018-09-29T08:22:17.539Z,2080.00
2018-09-29T08:23:17.533Z,2076.00
2018-09-29T08:24:17.560Z,2076.00
2018-09-29T08:25:17.521Z,2076.00
2018-09-29T08:26:17.516Z,2072.00
2018-09-29T08:27:17.511Z,2072.00
2018-09-29T08:28:17.504Z,2068.00
2018-09-29T08:29:17.512Z,2068.00
2018-09-29T08:30:17.494Z,2068.00
2018-09-29T08:31:17.492Z,2064.00
2018-09-29T08:32:17.495Z,2060.00
2018-09-29T08:33:17.480Z,2064.00
2018-09-29T08:34:17.473Z,2056.00
2018-09-29T08:35:17.472Z,2052.00
2018-09-29T08:36:17.507Z,2052.00
2018-09-29T08:37:17.460Z,2052.00
2018-09-29T08:38:17.454Z,2044.00
2018-09-29T08:39:17.447Z,2044.00
2018-09-29T08:40:17.442Z,2052.00
2018-09-29T08:41:17.440Z,2048.00
2018-09-29T08:42:17.433Z,2052.00
2018-09-29T08:43:17.425Z,2048.00
2018-09-29T08:44:17.434Z,2052.00
2018-09-29T08:45:17.415Z,2048.00
2018-09-29T08:46:17.410Z,2048.00
2018-09-29T08:47:17.405Z,2048.00
2018-09-29T08:48:17.398Z,2040.00
2018-09-29T08:49:17.395Z,2036.00
2018-09-29T08:50:17.413Z,2036.00
2018-09-29T08:51:17.406Z,2028.00
2018-09-29T08:52:17.379Z,2028.00
2018-09-29T08:53:17.393Z,2024.00
2018-09-29T08:54:17.368Z,2024.00
2018-09-29T08:55:17.364Z,2028.00
2018-09-29T08:56:17.358Z,2024.00
2018-09-29T08:57:17.357Z,2028.00
2018-09-29T08:58:17.353Z,2024.00
2018-09-29T08:59:17.346Z,2024.00
2018-09-29T09:00:17.342Z,2016.00
2018-09-29T09:01:17.334Z,2016.00
2018-09-29T09:02:17.330Z,2012.00
2018-09-29T09:03:17.324Z,2012.00
2018-09-29T09:04:17.320Z,2008.00
2018-09-29T09:05:17.361Z,2012.00
2018-09-29T09:06:17.310Z,2000.00
2018-09-29T09:07:17.307Z,2004.00
2018-09-29T09:08:17.298Z,2000.00
2018-09-29T09:09:17.299Z,2000.00
2018-09-29T09:10:17.288Z,2004.00
2018-09-29T09:11:17.285Z,2012.00
2018-09-29T09:12:17.278Z,2004.00
2018-09-29T09:13:17.275Z,2012.00
2018-09-29T09:14:17.270Z,2008.00
2018-09-29T09:15:17.270Z,2024.00
2018-09-29T09:16:17.261Z,2020.00
2018-09-29T09:17:17.255Z,2052.00
2018-09-29T09:18:17.250Z,2132.00
2018-09-29T09:19:17.247Z,2176.00
2018-09-29T09:20:17.238Z,2128.00
2018-09-29T09:21:17.238Z,1884.00
2018-09-29T09:22:17.232Z,1840.00
2018-09-29T09:23:17.368Z,1880.00
2018-09-29T09:24:17.269Z,2084.00
2018-09-29T09:25:17.216Z,2072.00
2018-09-29T09:26:17.213Z,2052.00
2018-09-29T09:27:17.210Z,2040.00
2018-09-29T09:28:18.128Z,2080.00
2018-09-29T09:29:17.197Z,2072.00
2018-09-29T09:30:17.233Z,2020.00
2018-09-29T09:31:17.191Z,2016.00
2018-09-29T09:32:17.185Z,2020.00
2018-09-29T09:33:17.181Z,2020.00
2018-09-29T09:34:17.174Z,2028.00
2018-09-29T09:35:17.179Z,2032.00
2018-09-29T09:36:17.166Z,2052.00
2018-09-29T09:37:17.160Z,2068.00
2018-09-29T09:38:17.158Z,2092.00
2018-09-29T09:39:17.154Z,2084.00
2018-09-29T09:40:17.155Z,2068.00
2018-09-29T09:41:17.145Z,2064.00
2018-09-29T09:42:17.144Z,2068.00
2018-09-29T09:43:17.135Z,2068.00
2018-09-29T09:44:17.129Z,2064.00
2018-09-29T09:45:17.129Z,2068.00
2018-09-29T09:46:17.119Z,2032.00
2018-09-29T09:47:17.118Z,1996.00
2018-09-29T09:48:17.113Z,1996.00
2018-09-29T09:49:17.163Z,2024.00
2018-09-29T09:50:17.105Z,2052.00
2018-09-29T09:51:17.102Z,2100.00
2018-09-29T09:52:17.095Z,2188.00
2018-09-29T09:53:17.092Z,2252.00
2018-09-29T09:54:17.088Z,2480.00
2018-09-29T09:55:17.082Z,2716.00
2018-09-29T09:56:17.078Z,3176.00
2018-09-29T09:57:17.074Z,3604.00
2018-09-29T09:58:17.071Z,3676.00
2018-09-29T09:59:17.067Z,3476.00
2018-09-29T10:00:17.062Z,3412.00
2018-09-29T10:01:17.057Z,3324.00
2018-09-29T10:02:17.054Z,3120.00
2018-09-29T10:03:17.050Z,3064.00
2018-09-29T10:04:17.049Z,2948.00
2018-09-29T10:05:17.044Z,2760.00
2018-09-29T10:06:17.052Z,2888.00
2018-09-29T10:07:17.035Z,2980.00
2018-09-29T10:08:17.030Z,3420.00
2018-09-29T10:09:17.027Z,4080.00
2018-09-29T10:10:17.022Z,4168.00
2018-09-29T10:11:17.027Z,3956.00
2018-09-29T10:12:17.018Z,3532.00
2018-09-29T10:13:17.011Z,3316.00
2018-09-29T10:14:17.009Z,3152.00
2018-09-29T10:15:17.004Z,3120.00
2018-09-29T10:16:16.998Z,3096.00
2018-09-29T10:17:16.996Z,3016.00
2018-09-29T10:18:16.994Z,3456.00
2018-09-29T10:19:17.025Z,3784.00
2018-09-29T10:20:16.984Z,4032.00
2018-09-29T10:21:16.980Z,4476.00
2018-09-29T10:22:16.981Z,4980.00
2018-09-29T10:23:16.976Z,5200.00
2018-09-29T10:24:16.975Z,4968.00
2018-09-29T10:25:16.973Z,5068.00
2018-09-29T10:26:16.966Z,4548.00
2018-09-29T10:27:16.962Z,4348.00
2018-09-29T10:28:16.959Z,4500.00
2018-09-29T10:29:16.957Z,4544.00
2018-09-29T10:30:16.953Z,4800.00
2018-09-29T10:31:16.949Z,5344.00
2018-09-29T10:32:16.946Z,5656.00
2018-09-29T10:33:16.944Z,5812.00
2018-09-29T10:34:16.968Z,6044.00
2018-09-29T10:35:16.936Z,6028.00
2018-09-29T10:36:17.041Z,5864.00
2018-09-29T10:37:16.931Z,6456.00
2018-09-29T10:38:16.926Z,6816.00
2018-09-29T10:39:16.925Z,6276.00
2018-09-29T10:40:16.921Z,5564.00
2018-09-29T10:41:16.919Z,5180.00
2018-09-29T10:42:16.914Z,5268.00
2018-09-29T10:43:16.913Z,5420.00
2018-09-29T10:44:17.032Z,5520.00
2018-09-29T10:45:16.917Z,5420.00
2018-09-29T10:46:16.904Z,5260.00
2018-09-29T10:47:16.910Z,5216.00
2018-09-29T10:48:16.898Z,5192.00
2018-09-29T10:49:16.892Z,5092.00
2018-09-29T10:50:16.896Z,4660.00
2018-09-29T10:51:16.893Z,4580.00
2018-09-29T10:52:16.886Z,4568.00
2018-09-29T10:53:16.883Z,4452.00
2018-09-29T10:54:16.881Z,3968.00
2018-09-29T10:55:16.879Z,3596.00
2018-09-29T10:56:16.876Z,3608.00
2018-09-29T10:57:16.873Z,3868.00
2018-09-29T10:58:16.871Z,3992.00
2018-09-29T10:59:16.970Z,4264.00
2018-09-29T11:00:16.867Z,4292.00
2018-09-29T11:01:16.864Z,4612.00
2018-09-29T11:02:16.859Z,4840.00
2018-09-29T11:03:16.862Z,5392.00
2018-09-29T11:04:16.856Z,5952.00
2018-09-29T11:05:16.851Z,6336.00
2018-09-29T11:06:16.849Z,5788.00
2018-09-29T11:07:17.581Z,5484.00
2018-09-29T11:08:16.843Z,4956.00
2018-09-29T11:09:16.839Z,5352.00
2018-09-29T11:10:16.843Z,5420.00
2018-09-29T11:11:16.837Z,5440.00
2018-09-29T11:12:16.832Z,4944.00
2018-09-29T11:13:16.829Z,4868.00
2018-09-29T11:14:16.831Z,4648.00
2018-09-29T11:15:16.825Z,4328.00
2018-09-29T11:16:16.823Z,3936.00
2018-09-29T11:17:16.824Z,3672.00
2018-09-29T11:18:16.817Z,3300.00
2018-09-29T11:19:16.816Z,3128.00
2018-09-29T11:20:16.813Z,3136.00
2018-09-29T11:21:16.809Z,3336.00
2018-09-29T11:22:16.809Z,3696.00
2018-09-29T11:23:16.805Z,4120.00
2018-09-29T11:24:16.802Z,4580.00
2018-09-29T11:25:16.807Z,4816.00
2018-09-29T11:26:16.798Z,5004.00
2018-09-29T11:27:16.795Z,5112.00
2018-09-29T11:28:16.856Z,5112.00
2018-09-29T11:29:16.790Z,5044.00
2018-09-29T11:30:16.786Z,4936.00
2018-09-29T11:31:16.785Z,4912.00
2018-09-29T11:32:16.780Z,4920.00
2018-09-29T11:33:16.782Z,4748.00
2018-09-29T11:34:16.777Z,4740.00
2018-09-29T11:35:16.774Z,4936.00
2018-09-29T11:36:16.777Z,5084.00
2018-09-29T11:37:16.768Z,5128.00
2018-09-29T11:38:16.762Z,5140.00
2018-09-29T11:39:16.838Z,4904.00
2018-09-29T11:40:16.762Z,4504.00
2018-09-29T11:41:16.759Z,4740.00
2018-09-29T11:42:16.755Z,4256.00
2018-09-29T11:43:16.754Z,3784.00
2018-09-29T11:44:16.749Z,3860.00
2018-09-29T11:45:16.755Z,3776.00
2018-09-29T11:46:16.750Z,3272.00
2018-09-29T11:47:16.746Z,3052.00
2018-09-29T11:48:16.741Z,3284.00
2018-09-29T11:49:16.741Z,3216.00
2018-09-29T11:50:16.733Z,3216.00
2018-09-29T11:51:16.733Z,3296.00
2018-09-29T11:52:16.728Z,2968.00
2018-09-29T11:53:16.728Z,3000.00
2018-09-29T11:54:16.725Z,3152.00
2018-09-29T11:55:16.725Z,3316.00
2018-09-29T11:56:16.791Z,3268.00
2018-09-29T11:57:16.718Z,3236.00
2018-09-29T11:58:16.719Z,3208.00
2018-09-29T11:59:16.713Z,3176.00
2018-09-29T12:00:16.709Z,3280.00
2018-09-29T12:01:16.708Z,3108.00
2018-09-29T12:02:16.769Z,3144.00
2018-09-29T12:03:16.706Z,3252.00
2018-09-29T12:04:16.700Z,3128.00
2018-09-29T12:05:16.702Z,3096.00
2018-09-29T12:06:16.736Z,3364.00
2018-09-29T12:07:16.743Z,3772.00
2018-09-29T12:08:16.691Z,4016.00
2018-09-29T12:09:16.685Z,4284.00
2018-09-29T12:10:16.688Z,4748.00
2018-09-29T12:11:16.682Z,4612.00
2018-09-29T12:12:16.678Z,4664.00
2018-09-29T12:13:16.675Z,4668.00
2018-09-29T12:14:16.677Z,4788.00
2018-09-29T12:15:16.674Z,4276.00
2018-09-29T12:16:16.666Z,3876.00
2018-09-29T12:17:16.664Z,4348.00
2018-09-29T12:18:16.667Z,5124.00
2018-09-29T12:19:16.660Z,5640.00
2018-09-29T12:20:16.657Z,6264.00
2018-09-29T12:21:16.659Z,5940.00
2018-09-29T12:22:16.667Z,5356.00
2018-09-29T12:23:16.657Z,4804.00
2018-09-29T12:24:16.650Z,4392.00
2018-09-29T12:25:16.644Z,4076.00
2018-09-29T12:26:16.640Z,3836.00
2018-09-29T12:27:17.188Z,3516.00
2018-09-29T12:28:16.643Z,3220.00
2018-09-29T12:29:16.663Z,2996.00
2018-09-29T12:30:17.605Z,2728.00
2018-09-29T12:31:16.633Z,2612.00
2018-09-29T12:32:16.632Z,2468.00
2018-09-29T12:33:16.627Z,2444.00